Time;durP1;ratioP1;P1;durP2;ratioP2;P2;SDS_P1;SDS_P2;PMS_P1;PMS_P2;Temp;Humidity;BMP_temperature;BMP_pressure;BME280_temperature;BME280_humidity;BME280_pressure;Samples;Min_cycle;Max_cycle;Signal;HPM_P1;HPM_P2
2023/04/22 00:02:07;;;;;;;3.72;1.65;;;18.20;99.90;;;;;;5060210;28;20192;-75
2023/04/22 00:04:38;;;;;;;3.17;1.83;;;18.20;99.90;;;;;;5065475;28;20230;-76
2023/04/22 00:07:09;;;;;;;3.22;1.52;;;18.20;99.90;;;;;;5068775;28;20222;-75
2023/04/22 00:09:40;;;;;;;4.45;1.98;;;18.20;99.90;;;;;;5061249;28;20192;-75
2023/04/22 00:12:12;;;;;;;3.97;1.65;;;18.40;99.90;;;;;;5073068;28;20200;-76
2023/04/22 00:14:45;;;;;;;5.97;2.10;;;18.40;99.90;;;;;;5060863;28;20223;-75
2023/04/22 00:17:16;;;;;;;3.78;1.95;;;18.40;99.90;;;;;;5058937;28;20203;-75
2023/04/22 00:19:47;;;;;;;4.00;2.15;;;18.50;99.90;;;;;;5060939;28;20205;-75
2023/04/22 00:22:18;;;;;;;5.70;2.05;;;18.60;99.90;;;;;;5060643;28;20196;-75
2023/04/22 00:24:49;;;;;;;4.65;1.67;;;18.60;99.90;;;;;;5071898;28;20207;-76
2023/04/22 00:27:21;;;;;;;4.93;1.92;;;18.60;99.90;;;;;;5072352;28;20242;-76
2023/04/22 00:29:54;;;;;;;3.00;1.70;;;18.60;99.90;;;;;;5070537;28;20224;-76
2023/04/22 00:32:25;;;;;;;4.13;1.90;;;18.70;99.90;;;;;;5067360;28;20199;-76
2023/04/22 00:34:56;;;;;;;3.40;1.80;;;18.70;99.90;;;;;;5071895;28;20254;-75
2023/04/22 00:37:27;;;;;;;3.20;1.83;;;18.80;99.90;;;;;;5071530;28;20208;-75
2023/04/22 00:39:58;;;;;;;4.00;1.67;;;18.80;99.90;;;;;;5073003;28;20206;-75
2023/04/22 00:42:30;;;;;;;3.38;1.58;;;18.80;99.90;;;;;;5066438;28;20192;-76
2023/04/22 00:45:03;;;;;;;3.05;1.60;;;18.80;99.90;;;;;;5065779;28;20199;-75
2023/04/22 00:47:35;;;;;;;3.08;1.50;;;18.80;99.90;;;;;;5068002;28;20682;-75
2023/04/22 00:50:07;;;;;;;4.82;1.60;;;18.80;99.90;;;;;;5051412;28;20572;-74
2023/04/22 00:52:38;;;;;;;4.90;1.55;;;18.80;99.90;;;;;;5052692;28;20200;-74
2023/04/22 00:55:09;;;;;;;3.97;1.75;;;18.80;99.90;;;;;;5052224;28;20197;-74
2023/04/22 00:57:41;;;;;;;6.63;1.67;;;18.90;99.90;;;;;;5060629;28;20192;-75
2023/04/22 01:00:15;;;;;;;3.63;1.70;;;19.00;99.90;;;;;;5071942;28;20222;-75
2023/04/22 01:02:46;;;;;;;5.18;1.88;;;19.10;99.90;;;;;;5083265;28;20219;-76
2023/04/22 01:05:17;;;;;;;3.28;1.58;;;19.10;99.90;;;;;;5073323;28;20193;-75
2023/04/22 01:07:49;;;;;;;5.70;1.60;;;19.30;99.90;;;;;;5063983;28;20242;-76
2023/04/22 01:10:21;;;;;;;4.55;1.52;;;19.50;99.90;;;;;;5070944;28;20219;-76
2023/04/22 01:12:52;;;;;;;4.93;1.58;;;19.70;99.90;;;;;;5071833;28;20272;-76
2023/04/22 01:15:27;;;;;;;5.35;1.38;;;20.00;99.90;;;;;;5070697;28;20200;-77
2023/04/22 01:17:58;;;;;;;3.80;1.50;;;20.10;99.90;;;;;;5058011;28;20705;-76
2023/04/22 01:20:30;;;;;;;3.53;1.20;;;20.30;99.90;;;;;;5063227;28;20219;-76
2023/04/22 01:23:04;;;;;;;3.28;1.65;;;20.40;99.90;;;;;;5054487;28;20220;-76
2023/04/22 01:25:37;;;;;;;2.47;1.13;;;20.50;99.90;;;;;;5055229;28;20217;-76
2023/04/22 01:28:08;;;;;;;2.90;1.30;;;20.50;99.90;;;;;;5059447;28;20215;-75
2023/04/22 01:30:40;;;;;;;4.28;1.38;;;20.60;99.90;;;;;;5060001;28;20211;-75
2023/04/22 01:33:11;;;;;;;5.75;1.50;;;20.70;99.90;;;;;;5058388;28;20216;-76
2023/04/22 01:35:42;;;;;;;5.32;1.40;;;20.80;99.90;;;;;;5037982;28;20216;-77
2023/04/22 01:38:14;;;;;;;6.57;1.73;;;20.80;99.90;;;;;;5039773;28;20211;-77
2023/04/22 01:40:47;;;;;;;4.00;1.50;;;20.90;99.90;;;;;;5035751;28;20205;-77
2023/04/22 01:43:18;;;;;;;5.00;1.45;;;20.90;99.90;;;;;;5037501;28;20204;-77
2023/04/22 01:45:50;;;;;;;3.97;1.17;;;20.90;99.90;;;;;;5033289;28;20204;-76
2023/04/22 01:48:21;;;;;;;3.15;1.13;;;21.00;99.90;;;;;;5057094;28;20242;-77
2023/04/22 01:50:52;;;;;;;3.47;1.38;;;21.00;99.90;;;;;;5054753;28;20205;-77
2023/04/22 01:53:23;;;;;;;4.00;1.23;;;21.00;99.90;;;;;;5058827;28;20554;-77
2023/04/22 01:55:56;;;;;;;4.70;1.65;;;21.00;99.90;;;;;;5052290;28;20206;-77
2023/04/22 01:58:30;;;;;;;4.10;1.50;;;21.00;99.90;;;;;;5063951;28;20200;-77
2023/04/22 02:01:02;;;;;;;3.88;1.52;;;21.00;99.90;;;;;;5053158;28;20200;-77
2023/04/22 02:03:35;;;;;;;4.65;1.50;;;20.90;99.90;;;;;;5059859;28;20206;-77
2023/04/22 02:06:06;;;;;;;3.15;1.50;;;20.90;99.90;;;;;;5068126;28;20196;-78
2023/04/22 02:08:37;;;;;;;5.35;1.50;;;20.90;99.90;;;;;;5060936;28;20216;-77
2023/04/22 02:11:11;;;;;;;2.53;1.50;;;20.80;99.90;;;;;;5068770;28;20535;-77
2023/04/22 02:13:42;;;;;;;2.35;1.30;;;20.80;99.90;;;;;;5059197;28;20247;-78
2023/04/22 02:16:13;;;;;;;6.28;1.30;;;20.80;99.90;;;;;;5077825;28;20184;-77
2023/04/22 02:18:45;;;;;;;5.93;1.67;;;20.80;99.90;;;;;;5078714;28;20215;-77
2023/04/22 02:21:16;;;;;;;6.43;1.38;;;20.90;99.90;;;;;;5069468;28;20213;-76
2023/04/22 02:23:47;;;;;;;3.38;1.50;;;20.90;99.90;;;;;;5063011;28;20226;-79
2023/04/22 02:26:20;;;;;;;4.53;1.30;;;20.90;99.90;;;;;;5054215;28;20598;-77
2023/04/22 02:28:51;;;;;;;4.40;1.60;;;21.00;99.90;;;;;;5068998;28;20236;-76
2023/04/22 02:31:25;;;;;;;5.07;1.33;;;21.00;99.90;;;;;;5058906;28;20224;-77
2023/04/22 02:33:56;;;;;;;2.78;1.33;;;20.90;99.90;;;;;;5062380;28;20721;-77
2023/04/22 02:36:28;;;;;;;4.35;1.42;;;20.90;99.90;;;;;;5061898;28;20220;-77
2023/04/22 02:39:00;;;;;;;2.80;1.08;;;20.90;99.90;;;;;;5060791;28;20725;-77
2023/04/22 02:41:33;;;;;;;3.80;1.30;;;20.90;99.90;;;;;;5061548;28;20569;-77
2023/04/22 02:44:04;;;;;;;8.48;1.50;;;20.90;99.90;;;;;;5060834;28;20219;-76
2023/04/22 02:46:36;;;;;;;4.50;1.30;;;20.90;99.90;;;;;;5062837;28;20197;-78
2023/04/22 02:49:07;;;;;;;3.70;1.40;;;20.90;99.90;;;;;;5062082;28;20227;-77
2023/04/22 02:51:39;;;;;;;5.10;1.48;;;20.80;99.90;;;;;;5071671;28;20206;-76
2023/04/22 02:54:10;;;;;;;3.63;1.65;;;20.80;99.90;;;;;;5050123;28;20633;-75
2023/04/22 02:56:43;;;;;;;4.88;1.98;;;20.80;99.90;;;;;;5053864;28;20574;-78
2023/04/22 02:59:14;;;;;;;2.72;1.70;;;20.80;99.90;;;;;;5067216;28;20681;-77
2023/04/22 03:01:45;;;;;;;3.03;1.65;;;20.70;99.90;;;;;;5060601;28;20196;-76
2023/04/22 03:04:17;;;;;;;5.10;1.70;;;20.70;99.90;;;;;;5056126;28;20200;-77
2023/04/22 03:06:48;;;;;;;4.18;1.70;;;20.70;99.90;;;;;;5068252;28;20274;-77
2023/04/22 03:09:19;;;;;;;6.63;1.77;;;20.70;99.90;;;;;;5063767;28;20220;-77
2023/04/22 03:11:52;;;;;;;6.70;1.83;;;20.70;99.90;;;;;;5049609;28;20197;-77
2023/04/22 03:14:23;;;;;;;3.95;1.50;;;20.70;99.90;;;;;;5069174;28;20203;-77
2023/04/22 03:16:54;;;;;;;5.13;2.00;;;20.70;99.90;;;;;;5058484;28;20207;-77
2023/04/22 03:19:26;;;;;;;6.82;2.10;;;20.70;99.90;;;;;;5057009;28;20203;-77
2023/04/22 03:21:58;;;;;;;4.85;1.90;;;20.70;99.90;;;;;;5061333;28;20199;-77
2023/04/22 03:24:29;;;;;;;5.05;1.77;;;20.80;99.90;;;;;;5054092;28;20284;-77
2023/04/22 03:27:02;;;;;;;4.85;2.03;;;20.80;99.90;;;;;;5061627;28;21561;-76
2023/04/22 03:29:33;;;;;;;3.17;1.60;;;20.80;99.90;;;;;;5061622;28;20220;-75
2023/04/22 03:32:04;;;;;;;5.25;1.77;;;20.80;99.90;;;;;;5062183;28;20197;-78
2023/04/22 03:34:36;;;;;;;4.95;1.60;;;20.90;99.90;;;;;;5060954;28;20216;-77
2023/04/22 03:37:08;;;;;;;4.28;1.70;;;20.90;99.90;;;;;;5057672;28;20212;-78
2023/04/22 03:39:39;;;;;;;3.38;1.30;;;20.90;99.90;;;;;;5068898;28;20253;-76
2023/04/22 03:42:15;;;;;;;3.42;1.90;;;20.90;99.90;;;;;;5059719;28;20191;-76
2023/04/22 03:44:46;;;;;;;3.47;1.70;;;21.00;99.90;;;;;;5073119;28;20199;-78
2023/04/22 03:47:17;;;;;;;5.38;1.52;;;20.90;99.90;;;;;;5056488;28;20654;-76
2023/04/22 03:49:48;;;;;;;4.57;1.30;;;20.90;99.90;;;;;;5052657;28;20735;-76
2023/04/22 03:52:19;;;;;;;5.22;1.70;;;21.00;99.90;;;;;;5058807;28;20692;-75
2023/04/22 03:54:50;;;;;;;4.72;1.50;;;21.00;99.90;;;;;;5056781;28;20717;-76
2023/04/22 03:57:23;;;;;;;4.43;1.83;;;21.00;99.90;;;;;;5056543;28;20717;-76
2023/04/22 03:59:54;;;;;;;3.38;1.70;;;21.10;99.90;;;;;;5064237;28;20295;-77
2023/04/22 04:02:25;;;;;;;4.00;1.52;;;21.00;99.90;;;;;;5062401;28;20699;-77
2023/04/22 04:04:57;;;;;;;4.80;1.75;;;21.10;99.90;;;;;;5055264;28;20227;-77
2023/04/22 04:07:28;;;;;;;4.43;1.60;;;21.10;99.90;;;;;;5054996;28;20221;-78
2023/04/22 04:09:59;;;;;;;2.22;1.30;;;21.10;99.90;;;;;;5060109;28;20362;-78
2023/04/22 04:12:32;;;;;;;4.47;1.52;;;21.10;99.90;;;;;;5051551;28;20212;-77
2023/04/22 04:15:04;;;;;;;4.50;1.70;;;21.10;99.90;;;;;;5055479;28;20572;-78
2023/04/22 04:17:35;;;;;;;3.95;2.22;;;21.10;99.90;;;;;;5061021;28;20220;-77
2023/04/22 04:20:06;;;;;;;4.63;2.40;;;21.10;99.90;;;;;;5054566;28;20299;-77
2023/04/22 04:22:37;;;;;;;4.57;1.95;;;21.10;99.90;;;;;;5060762;28;20196;-77
2023/04/22 04:25:09;;;;;;;4.20;2.10;;;21.00;99.90;;;;;;5055411;28;20247;-77
2023/04/22 04:27:42;;;;;;;6.88;3.30;;;21.00;99.90;;;;;;5062287;28;20219;-77
2023/04/22 04:30:15;;;;;;;10.85;4.05;;;21.00;99.90;;;;;;5054320;28;20261;-78
2023/04/22 04:32:46;;;;;;;4.07;2.45;;;20.90;99.90;;;;;;5072089;28;20195;-78
2023/04/22 04:35:20;;;;;;;3.00;2.20;;;20.90;99.90;;;;;;5062415;28;20195;-77
2023/04/22 04:37:52;;;;;;;3.15;1.88;;;20.80;99.90;;;;;;5069052;28;20191;-77
2023/04/22 04:40:23;;;;;;;4.28;1.90;;;20.80;99.90;;;;;;5072575;28;20204;-76
2023/04/22 04:42:56;;;;;;;3.78;1.90;;;20.80;99.90;;;;;;5056102;28;20677;-78
2023/04/22 04:45:27;;;;;;;4.63;1.95;;;20.70;99.90;;;;;;5060448;28;20275;-79
2023/04/22 04:47:59;;;;;;;4.25;1.80;;;20.70;99.90;;;;;;5064818;28;20250;-78
2023/04/22 04:50:30;;;;;;;5.07;2.20;;;20.60;99.90;;;;;;5064546;28;20686;-79
2023/04/22 04:53:01;;;;;;;4.00;2.03;;;20.50;99.90;;;;;;5056574;28;20199;-78
2023/04/22 04:55:32;;;;;;;8.35;2.47;;;20.50;99.90;;;;;;5074886;28;20692;-77
2023/04/22 04:58:06;;;;;;;7.13;2.65;;;20.50;99.90;;;;;;5069895;28;20208;-79
2023/04/22 05:00:37;;;;;;;6.18;2.50;;;20.40;99.90;;;;;;5061227;28;20193;-78
2023/04/22 05:03:08;;;;;;;6.32;2.70;;;20.40;99.90;;;;;;5067203;28;20209;-79
2023/04/22 05:05:39;;;;;;;5.35;2.63;;;20.40;99.90;;;;;;5059105;28;20196;-78
2023/04/22 05:08:10;;;;;;;6.22;2.30;;;20.30;99.90;;;;;;5070791;28;20196;-78
2023/04/22 05:10:41;;;;;;;3.58;1.92;;;20.30;99.90;;;;;;5066076;28;20206;-78
2023/04/22 05:13:16;;;;;;;6.22;2.33;;;20.30;99.90;;;;;;5070541;28;20609;-78
2023/04/22 05:15:47;;;;;;;6.03;2.15;;;20.20;99.90;;;;;;5058712;28;20188;-78
2023/04/22 05:18:19;;;;;;;6.13;2.20;;;20.20;99.90;;;;;;5062576;28;20658;-75
2023/04/22 05:20:50;;;;;;;3.63;2.33;;;20.20;99.90;;;;;;5062006;28;20549;-76
2023/04/22 05:23:21;;;;;;;7.32;2.53;;;20.20;99.90;;;;;;5060532;28;20215;-77
2023/04/22 05:25:52;;;;;;;9.25;2.80;;;20.20;99.90;;;;;;5069912;28;20721;-78
2023/04/22 05:28:25;;;;;;;7.57;3.00;;;20.20;99.90;;;;;;5056093;28;20203;-78
2023/04/22 05:30:56;;;;;;;6.57;2.25;;;20.20;99.90;;;;;;5056199;28;20666;-77
2023/04/22 05:33:27;;;;;;;4.95;2.33;;;20.20;99.90;;;;;;5071160;28;20659;-77
2023/04/22 05:35:58;;;;;;;4.28;2.42;;;20.10;99.90;;;;;;5058327;28;20349;-77
2023/04/22 05:38:30;;;;;;;6.65;2.72;;;20.20;99.90;;;;;;5062632;28;20196;-78
2023/04/22 05:41:01;;;;;;;6.22;2.63;;;20.10;99.90;;;;;;5059975;28;20200;-77
2023/04/22 05:43:34;;;;;;;6.65;2.45;;;20.10;99.90;;;;;;5052419;28;20221;-78
2023/04/22 05:46:05;;;;;;;5.63;2.38;;;20.10;99.90;;;;;;5052360;28;20881;-77
2023/04/22 05:48:36;;;;;;;4.78;2.22;;;20.10;99.90;;;;;;5055882;28;20213;-78
2023/04/22 05:51:07;;;;;;;3.60;1.67;;;20.10;99.90;;;;;;5068643;28;20188;-77
2023/04/22 05:53:40;;;;;;;5.43;1.85;;;20.10;99.90;;;;;;5067647;28;20204;-76
2023/04/22 05:56:12;;;;;;;4.32;1.85;;;20.10;99.90;;;;;;5057699;28;20185;-76
2023/04/22 05:58:45;;;;;;;5.07;2.17;;;20.10;99.90;;;;;;5052535;28;20627;-77
2023/04/22 06:01:16;;;;;;;3.92;1.88;;;20.10;99.90;;;;;;5053169;28;20220;-77
2023/04/22 06:03:47;;;;;;;5.35;2.22;;;20.00;99.90;;;;;;5052051;28;20200;-77
2023/04/22 06:06:18;;;;;;;5.43;2.38;;;20.10;99.90;;;;;;5051551;28;20205;-77
2023/04/22 06:08:49;;;;;;;3.50;2.25;;;20.00;99.90;;;;;;5052596;28;20204;-76
2023/04/22 06:11:21;;;;;;;5.25;2.08;;;20.00;99.90;;;;;;5053507;28;20578;-77
2023/04/22 06:13:55;;;;;;;6.95;2.40;;;20.00;99.90;;;;;;5053234;28;20200;-76
2023/04/22 06:16:26;;;;;;;4.80;2.15;;;20.00;99.90;;;;;;5068753;28;20208;-76
2023/04/22 06:18:57;;;;;;;5.75;2.50;;;20.00;99.90;;;;;;5052819;28;20205;-77
2023/04/22 06:21:28;;;;;;;6.90;2.67;;;20.10;99.90;;;;;;5052561;28;20196;-77
2023/04/22 06:24:00;;;;;;;7.38;2.60;;;20.00;99.90;;;;;;5052838;28;20201;-77
2023/04/22 06:26:31;;;;;;;5.22;2.22;;;20.00;99.90;;;;;;5052007;28;20220;-77
2023/04/22 06:29:04;;;;;;;4.78;2.25;;;20.00;99.90;;;;;;5065364;28;20231;-77
2023/04/22 06:31:35;;;;;;;4.88;2.17;;;20.10;99.90;;;;;;5071467;28;20211;-77
2023/04/22 06:34:06;;;;;;;5.22;2.22;;;20.10;99.90;;;;;;5071592;28;20594;-77
2023/04/22 06:36:38;;;;;;;4.55;1.73;;;20.00;99.90;;;;;;5068784;28;20212;-77
2023/04/22 06:39:09;;;;;;;3.38;2.00;;;20.00;99.90;;;;;;5052742;28;20254;-78
2023/04/22 06:41:43;;;;;;;5.68;2.00;;;20.00;99.90;;;;;;5051571;28;20193;-77
2023/04/22 06:44:16;;;;;;;4.97;2.60;;;20.00;99.90;;;;;;5051652;28;20271;-77
2023/04/22 06:46:47;;;;;;;4.45;2.30;;;20.00;99.90;;;;;;5057208;28;20200;-77
2023/04/22 06:49:18;;;;;;;5.53;2.60;;;20.00;99.90;;;;;;5070800;28;20277;-77
2023/04/22 06:51:49;;;;;;;5.00;2.30;;;20.00;99.90;;;;;;5071297;28;20282;-76
2023/04/22 06:54:20;;;;;;;4.10;2.05;;;20.00;99.90;;;;;;5065972;28;20193;-77
2023/04/22 06:56:51;;;;;;;3.85;1.85;;;19.90;99.90;;;;;;5057501;28;20200;-76
2023/04/22 06:59:24;;;;;;;5.05;2.42;;;19.90;99.90;;;;;;5070434;28;20523;-76
2023/04/22 07:01:55;;;;;;;4.05;1.90;;;19.90;99.90;;;;;;5067131;28;20200;-77
2023/04/22 07:04:28;;;;;;;4.90;1.98;;;19.90;99.90;;;;;;5050251;28;20200;-78
2023/04/22 07:06:59;;;;;;;6.00;1.88;;;19.90;99.90;;;;;;5050931;28;20250;-77
2023/04/22 07:09:30;;;;;;;4.90;2.28;;;19.90;99.90;;;;;;5055942;28;20779;-76
2023/04/22 07:12:01;;;;;;;5.30;2.38;;;19.80;99.90;;;;;;5071094;28;20196;-77
2023/04/22 07:14:34;;;;;;;4.32;2.13;;;19.80;99.90;;;;;;5068609;28;20678;-74
2023/04/22 07:17:05;;;;;;;3.97;2.30;;;19.80;99.90;;;;;;5056098;28;21030;-77
2023/04/22 07:19:36;;;;;;;6.07;2.58;;;19.90;99.90;;;;;;5058324;28;20223;-77
2023/04/22 07:22:07;;;;;;;6.63;2.53;;;19.90;99.90;;;;;;5068709;28;20210;-78
2023/04/22 07:24:39;;;;;;;5.50;2.25;;;19.90;99.90;;;;;;5065457;28;20228;-78
2023/04/22 07:27:10;;;;;;;4.75;2.55;;;19.90;99.90;;;;;;5051656;28;20247;-78
2023/04/22 07:29:44;;;;;;;4.65;2.40;;;19.90;99.90;;;;;;5048606;28;20212;-78
2023/04/22 07:32:15;;;;;;;4.95;2.53;;;19.90;99.90;;;;;;5050517;28;20202;-77
2023/04/22 07:34:46;;;;;;;7.10;2.35;;;19.90;99.90;;;;;;5053493;28;20196;-77
2023/04/22 07:37:17;;;;;;;5.35;2.60;;;19.90;99.90;;;;;;5057991;28;20189;-76
2023/04/22 07:39:48;;;;;;;7.18;2.45;;;19.90;99.90;;;;;;5068409;28;20196;-76
2023/04/22 07:42:19;;;;;;;8.35;2.88;;;19.90;99.90;;;;;;5067918;28;20198;-76
2023/04/22 07:44:52;;;;;;;6.75;2.83;;;19.80;99.90;;;;;;5063708;28;20564;-76
2023/04/22 07:47:23;;;;;;;7.03;3.10;;;19.90;99.90;;;;;;5049986;28;20209;-76
2023/04/22 07:49:55;;;;;;;5.68;2.92;;;19.90;99.90;;;;;;5049686;28;20246;-76
2023/04/22 07:52:26;;;;;;;6.75;3.35;;;19.80;99.90;;;;;;5064021;28;20693;-76
2023/04/22 07:54:57;;;;;;;7.32;3.72;;;19.90;99.90;;;;;;5055379;28;20196;-77
2023/04/22 07:57:28;;;;;;;7.60;3.85;;;19.90;99.90;;;;;;5051722;28;20201;-76
2023/04/22 08:00:01;;;;;;;8.20;3.83;;;19.80;99.90;;;;;;5058681;28;20204;-75
2023/04/22 08:02:32;;;;;;;7.72;4.40;;;19.80;99.90;;;;;;5058040;28;20208;-76
2023/04/22 08:05:03;;;;;;;6.22;3.90;;;19.80;99.90;;;;;;5053920;28;20207;-77
2023/04/22 08:07:34;;;;;;;7.43;4.53;;;19.80;99.90;;;;;;5063325;28;20541;-77
2023/04/22 08:10:06;;;;;;;5.97;3.92;;;19.80;99.90;;;;;;5055592;28;20251;-77
2023/04/22 08:12:37;;;;;;;6.82;3.60;;;19.80;99.90;;;;;;5066404;28;20223;-76
2023/04/22 08:15:11;;;;;;;6.00;2.85;;;19.80;99.90;;;;;;5057402;28;20580;-76
2023/04/22 08:17:42;;;;;;;5.13;3.08;;;19.70;99.90;;;;;;5062670;28;20212;-77
2023/04/22 08:20:14;;;;;;;5.15;2.80;;;19.70;99.90;;;;;;5061238;28;20209;-78
2023/04/22 08:22:45;;;;;;;4.68;3.70;;;19.70;99.90;;;;;;5058801;28;20279;-77
2023/04/22 08:25:17;;;;;;;4.85;3.60;;;19.70;99.90;;;;;;5056790;28;20215;-78
2023/04/22 08:27:48;;;;;;;5.47;3.63;;;19.70;99.90;;;;;;5060960;28;20220;-77
2023/04/22 08:30:21;;;;;;;5.72;3.67;;;19.70;99.90;;;;;;5065726;28;20236;-77
2023/04/22 08:32:53;;;;;;;6.82;4.32;;;19.70;99.90;;;;;;5059926;28;20810;-77
2023/04/22 08:35:24;;;;;;;6.20;4.60;;;19.70;99.90;;;;;;5053814;28;20687;-76
2023/04/22 08:37:55;;;;;;;6.47;4.38;;;19.70;99.90;;;;;;5066264;28;20572;-77
2023/04/22 08:40:26;;;;;;;4.28;3.25;;;19.70;99.90;;;;;;5065494;28;20226;-77
2023/04/22 08:43:00;;;;;;;8.52;4.22;;;19.70;99.90;;;;;;5061972;28;20224;-77
2023/04/22 08:45:33;;;;;;;8.10;3.55;;;19.70;99.90;;;;;;5055528;28;20227;-77
2023/04/22 08:48:05;;;;;;;4.85;3.25;;;19.60;99.90;;;;;;5058351;28;20208;-78
2023/04/22 08:50:38;;;;;;;8.23;4.00;;;19.70;99.90;;;;;;5068347;28;20255;-78
2023/04/22 08:53:09;;;;;;;7.72;3.88;;;19.70;99.90;;;;;;5068231;28;20196;-78
2023/04/22 08:55:42;;;;;;;9.95;3.88;;;19.60;99.90;;;;;;5056201;28;20195;-78
2023/04/22 08:58:13;;;;;;;7.05;3.97;;;19.60;99.90;;;;;;5055638;28;20223;-76
2023/04/22 09:00:48;;;;;;;7.03;4.20;;;19.60;99.90;;;;;;5062410;28;20191;-77
2023/04/22 09:03:19;;;;;;;9.35;4.40;;;19.60;99.90;;;;;;5054122;28;20223;-77
2023/04/22 09:05:52;;;;;;;6.43;3.90;;;19.60;99.90;;;;;;5070550;28;20223;-77
2023/04/22 09:08:26;;;;;;;5.78;4.25;;;19.60;99.90;;;;;;5061108;28;20196;-76
2023/04/22 09:10:57;;;;;;;7.22;4.47;;;19.60;99.90;;;;;;5065763;28;20774;-76
2023/04/22 09:13:31;;;;;;;7.35;4.28;;;19.60;99.90;;;;;;5061039;28;20201;-76
2023/04/22 09:16:19;;;;;;;7.80;4.35;;;19.60;99.90;;;;;;5069021;28;20227;-78
2023/04/22 09:18:52;;;;;;;5.97;4.22;;;19.60;99.90;;;;;;5074136;28;20599;-77
2023/04/22 09:21:26;;;;;;;6.07;3.60;;;19.60;99.90;;;;;;5072201;28;20589;-77
2023/04/22 09:23:58;;;;;;;5.95;3.88;;;19.60;99.90;;;;;;5067952;28;20212;-76
2023/04/22 09:26:30;;;;;;;5.20;3.92;;;19.60;99.90;;;;;;5067267;28;20232;-77
2023/04/22 09:29:01;;;;;;;5.40;3.85;;;19.60;99.90;;;;;;5065836;28;20200;-77
2023/04/22 09:31:36;;;;;;;5.95;3.72;;;19.50;99.90;;;;;;5066132;28;20238;-77
2023/04/22 09:34:08;;;;;;;5.72;4.40;;;19.50;99.90;;;;;;5063552;28;20196;-77
2023/04/22 09:36:39;;;;;;;5.85;4.38;;;19.50;99.90;;;;;;5058224;28;20202;-76
2023/04/22 09:39:11;;;;;;;5.20;4.40;;;19.50;99.90;;;;;;5067712;28;20200;-78
2023/04/22 09:41:43;;;;;;;5.65;3.92;;;19.50;99.90;;;;;;5063760;28;20205;-76
2023/04/22 09:44:19;;;;;;;5.85;4.00;;;19.50;99.90;;;;;;5101756;28;20248;-76
2023/04/22 09:46:55;;;;;;;5.30;3.95;;;19.50;99.90;;;;;;5065441;28;20244;-77
2023/04/22 09:49:29;;;;;;;5.32;3.85;;;19.50;99.90;;;;;;5055060;28;20306;-78
2023/04/22 09:52:01;;;;;;;5.70;3.53;;;19.50;99.90;;;;;;5064770;28;20227;-77
2023/04/22 09:54:33;;;;;;;5.45;3.90;;;19.50;99.90;;;;;;5067931;28;20196;-77
2023/04/22 09:57:10;;;;;;;5.60;3.70;;;19.50;99.90;;;;;;5074375;28;20203;-77
2023/04/22 09:59:41;;;;;;;6.80;4.20;;;19.50;99.90;;;;;;5069513;28;20257;-77
2023/04/22 10:02:15;;;;;;;5.70;3.78;;;19.50;99.90;;;;;;5072427;28;20200;-76
2023/04/22 10:04:46;;;;;;;5.55;4.20;;;19.50;99.90;;;;;;5069569;28;20297;-77
2023/04/22 10:07:17;;;;;;;7.47;4.90;;;19.50;99.90;;;;;;5057920;28;20702;-77
2023/04/22 10:09:49;;;;;;;7.25;4.72;;;19.50;99.90;;;;;;5053607;28;20207;-77
2023/04/22 10:12:20;;;;;;;6.25;4.72;;;19.50;99.90;;;;;;5062961;28;20282;-77
2023/04/22 10:14:51;;;;;;;6.80;5.10;;;19.50;99.90;;;;;;5056237;28;20211;-77
2023/04/22 10:17:26;;;;;;;9.27;5.15;;;19.50;99.90;;;;;;5061086;28;20200;-77
2023/04/22 10:19:57;;;;;;;6.88;4.88;;;19.50;99.90;;;;;;5066430;28;20199;-77
2023/04/22 10:22:31;;;;;;;9.93;4.13;;;19.50;99.90;;;;;;5052059;28;20636;-78
2023/04/22 10:25:02;;;;;;;6.25;4.70;;;19.50;99.90;;;;;;5057524;28;20644;-77
2023/04/22 10:27:33;;;;;;;8.95;4.75;;;19.50;99.90;;;;;;5055680;28;20202;-77
2023/04/22 10:30:06;;;;;;;7.22;4.50;;;19.50;99.90;;;;;;5066586;28;20192;-76
2023/04/22 10:32:40;;;;;;;7.85;4.70;;;19.40;99.90;;;;;;5062135;28;20569;-76
2023/04/22 10:35:15;;;;;;;8.82;4.55;;;19.40;99.90;;;;;;5068372;28;20663;-77
2023/04/22 10:37:48;;;;;;;6.32;4.50;;;19.40;99.90;;;;;;5061100;28;20310;-77
2023/04/22 10:40:21;;;;;;;6.93;4.50;;;19.40;99.90;;;;;;5066532;28;20205;-76
2023/04/22 10:42:55;;;;;;;6.03;4.15;;;19.40;99.90;;;;;;5067819;28;20658;-76
2023/04/22 10:45:28;;;;;;;6.43;4.30;;;19.40;99.90;;;;;;5051274;28;20192;-76
2023/04/22 10:48:05;;;;;;;5.93;4.65;;;19.50;99.90;;;;;;5052807;28;20303;-77
2023/04/22 10:50:37;;;;;;;6.85;4.40;;;19.50;99.90;;;;;;5058899;28;20224;-75
2023/04/22 10:53:37;;;;;;;5.93;4.75;;;19.50;99.90;;;;;;5067912;28;20575;-77
2023/04/22 10:56:19;;;;;;;7.10;4.72;;;19.50;99.90;;;;;;5058489;28;20200;-76
2023/04/22 10:58:51;;;;;;;8.75;5.55;;;19.50;99.90;;;;;;5057262;28;20206;-77
2023/04/22 11:01:22;;;;;;;5.72;5.13;;;19.50;99.90;;;;;;5061000;28;20682;-77
2023/04/22 11:04:18;;;;;;;8.18;4.80;;;19.50;99.90;;;;;;5055210;28;20200;-77
2023/04/22 11:07:09;;;;;;;6.78;4.90;;;19.50;99.90;;;;;;5054943;28;20192;-77
2023/04/22 11:09:45;;;;;;;8.18;4.90;;;19.50;99.90;;;;;;5074720;28;20602;-76
2023/04/22 11:12:46;;;;;;;6.40;4.60;;;19.60;99.90;;;;;;5059345;28;20223;-77
2023/04/22 11:15:19;;;;;;;6.35;4.63;;;19.50;99.90;;;;;;5061588;28;20188;-77
2023/04/22 11:17:55;;;;;;;7.57;4.72;;;19.50;99.90;;;;;;5051391;28;20196;-75
2023/04/22 11:20:29;;;;;;;8.55;5.15;;;19.50;99.90;;;;;;5059203;28;20234;-76
2023/04/22 11:23:00;;;;;;;7.90;5.65;;;19.60;99.90;;;;;;5056660;28;20211;-76
2023/04/22 11:25:33;;;;;;;9.65;5.38;;;19.50;99.90;;;;;;5063574;28;20619;-78
2023/04/22 11:28:05;;;;;;;9.77;5.30;;;19.50;99.90;;;;;;5061937;28;20199;-76
2023/04/22 11:30:37;;;;;;;6.20;4.68;;;19.50;99.90;;;;;;5069275;28;20240;-77
2023/04/22 11:33:09;;;;;;;9.95;5.35;;;19.50;99.90;;;;;;5070618;28;20196;-77
2023/04/22 11:35:43;;;;;;;7.00;5.25;;;19.40;99.90;;;;;;5073122;28;20192;-77
2023/04/22 11:38:14;;;;;;;6.93;5.40;;;19.50;99.90;;;;;;5060552;28;20635;-77
2023/04/22 11:40:46;;;;;;;7.75;5.57;;;19.40;99.90;;;;;;5064807;28;20587;-77
2023/04/22 11:43:18;;;;;;;7.90;4.90;;;19.40;99.90;;;;;;5069689;28;20193;-78
2023/04/22 11:45:49;;;;;;;6.25;4.80;;;19.40;99.90;;;;;;5072478;28;20196;-77
2023/04/22 11:48:23;;;;;;;7.55;5.32;;;19.40;99.90;;;;;;5077443;28;20634;-79
2023/04/22 11:51:16;;;;;;;7.05;5.05;;;19.40;99.90;;;;;;5068495;28;20655;-77
2023/04/22 11:53:57;;;;;;;7.43;4.85;;;19.40;99.90;;;;;;5077193;28;20195;-76
2023/04/22 11:56:29;;;;;;;7.70;5.28;;;19.40;99.90;;;;;;5063808;28;20212;-78
2023/04/22 11:59:01;;;;;;;6.40;4.85;;;19.40;99.90;;;;;;5055121;28;20203;-78
2023/04/22 12:01:35;;;;;;;8.45;5.32;;;19.30;99.90;;;;;;5063008;28;20586;-78
2023/04/22 12:04:07;;;;;;;9.55;4.75;;;19.30;99.90;;;;;;5063595;28;20224;-77
2023/04/22 12:06:41;;;;;;;5.82;4.65;;;19.30;99.90;;;;;;5058089;28;20212;-78
2023/04/22 12:09:12;;;;;;;6.03;4.50;;;19.30;99.90;;;;;;5065068;28;20196;-76
2023/04/22 12:11:43;;;;;;;5.97;4.50;;;19.40;99.90;;;;;;5071099;28;20224;-76
2023/04/22 12:14:15;;;;;;;7.63;4.72;;;19.30;99.90;;;;;;5076560;28;20287;-76
2023/04/22 12:16:46;;;;;;;5.68;4.80;;;19.30;99.90;;;;;;5073019;28;20192;-78
2023/04/22 12:19:17;;;;;;;6.88;4.90;;;19.20;99.90;;;;;;5074375;28;20200;-77
2023/04/22 12:21:50;;;;;;;5.03;4.50;;;19.30;99.90;;;;;;5061349;28;20204;-78
2023/04/22 12:24:21;;;;;;;6.30;4.95;;;19.20;99.90;;;;;;5058653;28;20197;-79
2023/04/22 12:26:52;;;;;;;5.25;4.68;;;19.30;99.90;;;;;;5054880;28;20216;-80
2023/04/22 12:29:32;;;;;;;6.07;4.60;;;19.30;99.90;;;;;;5055524;28;20208;-78
2023/04/22 12:32:03;;;;;;;5.72;4.43;;;19.30;99.90;;;;;;5059181;28;20223;-79
2023/04/22 12:34:35;;;;;;;6.05;4.70;;;19.30;99.90;;;;;;5055510;28;20218;-78
2023/04/22 12:37:08;;;;;;;6.10;4.70;;;19.30;99.90;;;;;;5059303;28;20198;-81
2023/04/22 12:39:40;;;;;;;5.47;4.45;;;19.30;99.90;;;;;;5060258;28;20646;-77
2023/04/22 12:42:11;;;;;;;6.03;4.78;;;19.30;99.90;;;;;;5065150;28;20216;-78
2023/04/22 12:44:42;;;;;;;8.40;5.30;;;19.20;99.90;;;;;;5064161;28;20936;-78
2023/04/22 12:47:13;;;;;;;7.25;5.28;;;19.20;99.90;;;;;;5062905;28;20231;-80
2023/04/22 12:49:46;;;;;;;5.60;4.57;;;19.20;99.90;;;;;;5072841;28;20224;-80
2023/04/22 12:52:19;;;;;;;6.22;4.90;;;19.30;99.90;;;;;;5065426;28;20227;-78
2023/04/22 12:54:50;;;;;;;5.35;4.80;;;19.30;99.90;;;;;;5067123;28;20231;-79
2023/04/22 12:57:24;;;;;;;5.43;4.72;;;19.30;99.90;;;;;;5068722;28;20196;-80
2023/04/22 12:59:55;;;;;;;7.75;4.95;;;19.30;99.90;;;;;;5062682;28;20188;-79
2023/04/22 13:02:26;;;;;;;6.47;4.95;;;19.30;99.90;;;;;;5057793;28;20249;-78
2023/04/22 13:04:57;;;;;;;5.95;4.90;;;19.30;99.90;;;;;;5065283;28;20189;-77
2023/04/22 13:07:30;;;;;;;6.97;4.78;;;19.30;99.90;;;;;;5066274;28;20202;-79
2023/04/22 13:10:02;;;;;;;5.65;5.05;;;19.30;99.90;;;;;;5059700;28;20284;-76
2023/04/22 13:12:35;;;;;;;6.30;4.82;;;19.30;99.90;;;;;;5071357;28;20277;-79
2023/04/22 13:15:07;;;;;;;5.03;4.53;;;19.30;99.90;;;;;;5076166;28;20681;-79